createdAt,value
2022-12-31T00:02:07.130Z,99275.34
2022-12-31T00:04:36.131Z,99269.97
2022-12-31T00:07:03.587Z,99274.03
2022-12-31T00:09:31.365Z,99278.56
2022-12-31T00:11:59.460Z,99280.88
2022-12-31T00:14:26.936Z,99286.47
2022-12-31T00:16:54.412Z,99287.09
2022-12-31T00:19:21.916Z,99287.34
2022-12-31T00:21:50.836Z,99291.34
2022-12-31T00:24:18.727Z,99297.38
2022-12-31T00:26:46.179Z,99282.09
2022-12-31T00:29:13.628Z,99290.78
2022-12-31T00:31:41.118Z,99286.81
2022-12-31T00:34:09.963Z,99275.19
2022-12-31T00:36:39.262Z,99282.41
2022-12-31T00:39:10.039Z,99283.41
2022-12-31T00:41:38.305Z,99284.72
2022-12-31T00:44:06.178Z,99283.72
2022-12-31T00:49:01.317Z,99282.25
2022-12-31T00:51:29.039Z,99285.81
2022-12-31T00:53:57.239Z,99286.63
2022-12-31T00:56:29.041Z,99281.44
2022-12-31T00:58:57.095Z,99291.63
2022-12-31T01:01:27.239Z,99281.22
2022-12-31T01:03:56.492Z,99285.47
2022-12-31T01:06:24.453Z,99291.50
2022-12-31T01:08:53.167Z,99291.34
2022-12-31T01:11:20.944Z,99295.59
2022-12-31T01:13:52.349Z,99291.47
2022-12-31T01:16:22.639Z,99295.16
2022-12-31T01:18:50.602Z,99285.94
2022-12-31T01:21:19.450Z,99292.47
2022-12-31T01:23:47.899Z,99285.63
2022-12-31T01:26:17.414Z,99283.28
2022-12-31T01:28:45.297Z,99283.56
2022-12-31T01:31:16.590Z,99282.72
2022-12-31T01:33:44.602Z,99291.19
2022-12-31T01:36:14.118Z,99290.09
2022-12-31T01:38:42.487Z,99286.59
2022-12-31T01:41:13.379Z,99293.66
2022-12-31T01:43:47.297Z,99295.16
2022-12-31T01:46:23.762Z,99294.47
2022-12-31T01:48:56.732Z,99296.84
2022-12-31T01:51:26.030Z,99304.91
2022-12-31T01:53:54.530Z,99295.63
2022-12-31T01:56:23.890Z,99307.47
2022-12-31T01:58:54.636Z,99303.88
2022-12-31T02:01:28.079Z,99303.53
2022-12-31T02:04:04.292Z,99311.06
2022-12-31T02:06:36.643Z,99308.25
2022-12-31T02:09:04.801Z,99307.56
2022-12-31T02:11:34.503Z,99309.78
2022-12-31T02:14:05.181Z,99313.28
2022-12-31T02:16:40.995Z,99308.25
2022-12-31T02:19:32.365Z,99315.97
2022-12-31T02:22:09.243Z,99314.63
2022-12-31T02:25:14.128Z,99310.25
2022-12-31T02:27:52.323Z,99310.78
2022-12-31T02:30:23.449Z,99312.09
2022-12-31T02:32:59.180Z,99309.41
2022-12-31T02:35:30.654Z,99311.44
2022-12-31T02:38:04.268Z,99320.38
2022-12-31T02:40:35.083Z,99319.22
2022-12-31T02:43:02.623Z,99317.91
2022-12-31T02:45:38.299Z,99317.59
2022-12-31T02:48:15.693Z,99320.84
2022-12-31T02:50:53.036Z,99319.91
2022-12-31T02:53:39.539Z,99327.84
2022-12-31T02:56:12.760Z,99331.72
2022-12-31T02:58:48.798Z,99323.41
2022-12-31T03:01:25.791Z,99327.53
2022-12-31T03:03:53.510Z,99330.22
2022-12-31T03:06:21.047Z,99328.16
2022-12-31T03:08:48.456Z,99326.19
2022-12-31T03:11:16.101Z,99329.88
2022-12-31T03:13:43.784Z,99326.97
2022-12-31T03:16:11.347Z,99332.47
2022-12-31T03:18:40.350Z,99328.22
2022-12-31T03:21:13.240Z,99324.59
2022-12-31T03:23:43.546Z,99331.91
2022-12-31T03:26:12.376Z,99333.50
2022-12-31T03:28:41.881Z,99325.53
2022-12-31T03:31:10.496Z,99330.28
2022-12-31T03:33:41.971Z,99325.47
2022-12-31T03:36:11.868Z,99337.06
2022-12-31T03:38:39.585Z,99346.91
2022-12-31T03:41:09.675Z,99342.56
2022-12-31T03:43:37.754Z,99343.41
2022-12-31T03:46:05.621Z,99353.28
2022-12-31T03:48:33.222Z,99361.59
2022-12-31T03:51:02.777Z,99363.44
2022-12-31T03:53:30.275Z,99367.53
2022-12-31T03:55:57.855Z,99363.03
2022-12-31T03:58:25.407Z,99357.13
2022-12-31T04:00:53.484Z,99356.28
2022-12-31T04:03:21.070Z,99362.63
2022-12-31T04:05:53.879Z,99357.41
2022-12-31T04:08:24.177Z,99360.50
2022-12-31T04:10:51.785Z,99365.59
2022-12-31T04:13:19.347Z,99366.72
2022-12-31T04:15:50.460Z,99371.53
2022-12-31T04:18:17.911Z,99369.72
2022-12-31T04:20:45.387Z,99371.97
2022-12-31T04:23:13.061Z,99363.63
2022-12-31T04:25:42.071Z,99368.44
2022-12-31T04:28:11.759Z,99376.63
2022-12-31T04:30:40.175Z,99371.28
2022-12-31T04:33:07.787Z,99370.41
2022-12-31T04:35:35.484Z,99378.63
2022-12-31T04:38:03.013Z,99382.41
2022-12-31T04:40:30.592Z,99382.56
2022-12-31T04:42:59.639Z,99385.53
2022-12-31T04:45:27.316Z,99387.34
2022-12-31T04:47:54.903Z,99383.97
2022-12-31T04:50:22.427Z,99381.72
2022-12-31T04:52:49.989Z,99377.19
2022-12-31T04:55:18.148Z,99389.03
2022-12-31T04:57:45.615Z,99387.22
2022-12-31T05:00:15.859Z,99385.66
2022-12-31T05:02:43.493Z,99386.78
2022-12-31T05:05:11.082Z,99398.66
2022-12-31T05:07:38.564Z,99393.28
2022-12-31T05:10:07.203Z,99396.81
2022-12-31T05:12:34.886Z,99390.75
2022-12-31T05:15:02.433Z,99382.28
2022-12-31T05:17:31.471Z,99385.81
2022-12-31T05:19:59.018Z,99384.28
2022-12-31T05:22:26.621Z,99387.81
2022-12-31T05:24:54.576Z,99399.34
2022-12-31T05:27:22.284Z,99396.41
2022-12-31T05:29:49.798Z,99386.69
2022-12-31T05:32:17.655Z,99389.34
2022-12-31T05:34:46.547Z,99389.91
2022-12-31T05:37:14.117Z,99391.06
2022-12-31T05:39:42.548Z,99389.34
2022-12-31T05:42:10.021Z,99401.78
2022-12-31T05:44:37.610Z,99392.00
2022-12-31T05:47:05.650Z,99387.06
2022-12-31T05:49:33.127Z,99383.41
2022-12-31T05:52:02.350Z,99386.25
2022-12-31T05:54:29.888Z,99388.66
2022-12-31T05:56:57.376Z,99385.69
2022-12-31T05:59:25.192Z,99393.03
2022-12-31T06:01:53.060Z,99403.47
2022-12-31T06:04:20.843Z,99398.66
2022-12-31T06:06:49.025Z,99398.94
2022-12-31T06:09:19.030Z,99398.94
2022-12-31T06:11:47.045Z,99391.03
2022-12-31T06:14:15.111Z,99393.44
2022-12-31T06:16:42.859Z,99395.28
2022-12-31T06:19:10.366Z,99396.13
2022-12-31T06:21:37.951Z,99399.63
2022-12-31T06:24:06.246Z,99406.84
2022-12-31T06:26:35.382Z,99413.56
2022-12-31T06:29:02.925Z,99410.88
2022-12-31T06:31:30.802Z,99406.25
2022-12-31T06:33:58.552Z,99405.28
2022-12-31T06:36:26.878Z,99402.59
2022-12-31T06:38:54.634Z,99401.63
2022-12-31T06:41:22.791Z,99404.28
2022-12-31T06:43:52.564Z,99409.50
2022-12-31T06:46:20.212Z,99406.97
2022-12-31T06:48:47.956Z,99399.44
2022-12-31T06:51:17.790Z,99404.81
2022-12-31T06:53:45.942Z,99399.63
2022-12-31T06:56:16.123Z,99391.59
2022-12-31T06:58:44.497Z,99385.53
2022-12-31T07:01:28.958Z,99389.34
2022-12-31T07:04:03.574Z,99384.81
2022-12-31T07:06:37.507Z,99382.88
2022-12-31T07:09:11.397Z,99385.81
2022-12-31T07:11:46.907Z,99374.97
2022-12-31T07:14:26.083Z,99389.91
2022-12-31T07:17:09.429Z,99392.72
2022-12-31T07:19:51.129Z,99395.50
2022-12-31T07:22:23.481Z,99401.16
2022-12-31T07:24:51.600Z,99403.13
2022-12-31T07:27:44.976Z,99394.94
2022-12-31T07:30:15.157Z,99402.56
2022-12-31T07:33:08.206Z,99398.34
2022-12-31T07:35:45.104Z,99403.13
2022-12-31T07:38:22.664Z,99398.75
2022-12-31T07:41:07.264Z,99399.19
2022-12-31T07:43:46.279Z,99401.69
2022-12-31T07:46:19.621Z,99398.19
2022-12-31T07:48:49.476Z,99394.66
2022-12-31T07:51:17.617Z,99394.81
2022-12-31T07:53:45.129Z,99387.22
2022-12-31T07:56:13.891Z,99388.59
2022-12-31T07:58:57.308Z,99383.53
2022-12-31T08:01:33.957Z,99390.16
2022-12-31T08:04:08.731Z,99388.59
2022-12-31T08:06:45.507Z,99387.06
2022-12-31T08:09:27.178Z,99384.94
2022-12-31T08:11:58.081Z,99379.72
2022-12-31T08:14:27.099Z,99372.28
2022-12-31T08:16:55.681Z,99369.44
2022-12-31T08:19:28.043Z,99364.25
2022-12-31T08:22:14.079Z,99357.22
2022-12-31T08:24:53.522Z,99362.56
2022-12-31T08:27:28.555Z,99359.44
2022-12-31T08:30:02.237Z,99359.91
2022-12-31T08:32:36.042Z,99369.16
2022-12-31T08:35:15.891Z,99368.47
2022-12-31T08:37:48.400Z,99361.44
2022-12-31T08:40:24.915Z,99365.09
2022-12-31T08:43:10.564Z,99372.13
2022-12-31T08:45:42.026Z,99366.06
2022-12-31T08:48:20.264Z,99360.03
2022-12-31T08:50:49.865Z,99364.22
2022-12-31T08:53:18.262Z,99371.56
2022-12-31T08:55:48.728Z,99366.22
2022-12-31T08:58:29.466Z,99363.53
2022-12-31T09:00:58.955Z,99365.38
2022-12-31T09:03:50.049Z,99363.66
2022-12-31T09:06:26.173Z,99370.56
2022-12-31T09:09:03.649Z,99375.22
2022-12-31T09:11:37.985Z,99368.88
2022-12-31T09:14:18.449Z,99361.56
2022-12-31T09:16:54.214Z,99378.00
2022-12-31T09:19:22.375Z,99371.13
2022-12-31T09:21:52.196Z,99377.06
2022-12-31T09:24:20.287Z,99377.03
2022-12-31T09:26:57.989Z,99371.69
2022-12-31T09:29:37.844Z,99372.66
2022-12-31T09:32:14.433Z,99373.25
2022-12-31T09:34:50.047Z,99373.25
2022-12-31T09:37:26.556Z,99363.94
2022-12-31T09:39:57.975Z,99355.22
2022-12-31T09:42:52.648Z,99356.47
2022-12-31T09:45:39.259Z,99359.13
2022-12-31T09:48:43.465Z,99365.47
2022-12-31T09:51:26.613Z,99361.09
2022-12-31T09:54:23.948Z,99358.44
2022-12-31T09:57:13.823Z,99359.56
2022-12-31T09:59:52.126Z,99368.44
2022-12-31T10:02:35.406Z,99365.06
2022-12-31T10:05:27.168Z,99362.38
2022-12-31T10:08:04.572Z,99362.38
2022-12-31T10:10:42.436Z,99357.16
2022-12-31T10:13:36.948Z,99353.50
2022-12-31T10:16:31.232Z,99341.81
2022-12-31T10:19:45.539Z,99346.47
2022-12-31T10:22:39.901Z,99366.56
2022-12-31T10:25:37.905Z,99359.66
2022-12-31T10:28:24.337Z,99355.31
2022-12-31T10:31:03.365Z,99352.75
2022-12-31T10:33:42.848Z,99360.78
2022-12-31T10:36:20.169Z,99368.34
2022-12-31T10:39:03.038Z,99369.78
2022-12-31T10:42:07.752Z,99376.50
2022-12-31T10:45:10.801Z,99374.53
2022-12-31T10:48:23.739Z,99383.53
2022-12-31T10:51:16.849Z,99381.25
2022-12-31T10:54:15.849Z,99382.38
2022-12-31T10:57:17.864Z,99384.94
2022-12-31T11:00:10.630Z,99380.41
2022-12-31T11:03:32.398Z,99376.16
2022-12-31T11:06:36.369Z,99381.78
2022-12-31T11:09:38.205Z,99375.88
2022-12-31T11:12:22.038Z,99387.41
2022-12-31T11:15:12.050Z,99384.75
2022-12-31T11:17:49.140Z,99384.59
2022-12-31T11:20:42.724Z,99386.31
2022-12-31T11:23:26.280Z,99405.56
2022-12-31T11:26:05.299Z,99409.38
2022-12-31T11:28:55.744Z,99405.84
2022-12-31T11:31:44.605Z,99415.53
2022-12-31T11:34:33.646Z,99416.09
2022-12-31T11:37:18.527Z,99411.59
2022-12-31T11:39:54.381Z,99404.94
2022-12-31T11:42:27.158Z,99399.31
2022-12-31T11:45:01.328Z,99396.34
2022-12-31T11:48:28.715Z,99388.47
2022-12-31T11:50:50.578Z,99400.25
2022-12-31T11:53:54.050Z,99398.56
2022-12-31T11:56:25.416Z,99391.38
2022-12-31T11:58:55.633Z,99398.69
2022-12-31T12:01:27.280Z,99402.22
2022-12-31T12:03:54.853Z,99405.59
2022-12-31T12:06:27.504Z,99415.97
2022-12-31T12:09:02.819Z,99402.47
2022-12-31T12:11:33.169Z,99398.81
2022-12-31T12:14:01.085Z,99398.97
2022-12-31T12:16:28.998Z,99415.97
2022-12-31T12:19:04.875Z,99424.09
2022-12-31T12:21:32.727Z,99415.09
2022-12-31T12:24:03.978Z,99418.03
2022-12-31T12:26:35.960Z,99417.19
2022-12-31T12:29:11.248Z,99415.38
2022-12-31T12:31:39.577Z,99417.19
2022-12-31T12:34:22.644Z,99431.41
2022-12-31T12:36:50.327Z,99413.09
2022-12-31T12:39:23.538Z,99412.25
2022-12-31T12:42:02.339Z,99411.13
2022-12-31T12:44:30.779Z,99415.63
2022-12-31T12:46:58.882Z,99407.16
2022-12-31T12:49:29.746Z,99415.03
2022-12-31T12:52:27.297Z,99414.19
2022-12-31T12:55:16.436Z,99419.53
2022-12-31T12:57:49.708Z,99414.31
2022-12-31T13:00:19.976Z,99418.09
2022-12-31T13:03:36.619Z,99418.09
2022-12-31T13:06:21.260Z,99400.97
2022-12-31T13:09:03.083Z,99398.97
2022-12-31T13:11:40.479Z,99397.28
2022-12-31T13:14:18.607Z,99399.69
2022-12-31T13:16:55.589Z,99409.91
2022-12-31T13:19:31.435Z,99408.06
2022-12-31T13:22:05.010Z,99408.66
2022-12-31T13:24:46.965Z,99404.19
2022-12-31T13:27:23.749Z,99405.41
2022-12-31T13:29:54.991Z,99408.19
2022-12-31T13:32:34.416Z,99403.13
2022-12-31T13:35:19.186Z,99412.97
2022-12-31T13:37:48.259Z,99403.41
2022-12-31T13:40:21.317Z,99404.09
2022-12-31T13:42:57.373Z,99394.69
2022-12-31T13:45:28.853Z,99400.72
2022-12-31T13:48:00.350Z,99406.50
2022-12-31T13:50:34.468Z,99394.69
2022-12-31T13:53:09.737Z,99381.47
2022-12-31T13:55:41.823Z,99384.94
2022-12-31T13:58:23.385Z,99383.16
2022-12-31T14:00:57.433Z,99376.25
2022-12-31T14:03:31.220Z,99379.88
2022-12-31T14:06:08.457Z,99373.72
2022-12-31T14:08:36.117Z,99381.84
2022-12-31T14:11:11.538Z,99378.31
2022-12-31T14:13:52.680Z,99382.13
2022-12-31T14:16:28.396Z,99385.63
2022-12-31T14:19:05.214Z,99385.50
2022-12-31T14:21:39.989Z,99386.72
2022-12-31T14:24:13.535Z,99393.63
2022-12-31T14:26:45.101Z,99394.47
2022-12-31T14:29:29.586Z,99400.91
2022-12-31T14:32:23.790Z,99405.38
2022-12-31T14:35:01.606Z,99415.94
2022-12-31T14:37:37.920Z,99408.91
2022-12-31T14:40:18.239Z,99404.41
2022-12-31T14:42:56.527Z,99392.31
2022-12-31T14:45:43.966Z,99391.59
2022-12-31T14:48:22.608Z,99392.44
2022-12-31T14:50:50.827Z,99388.09
2022-12-31T14:53:23.083Z,99392.59
2022-12-31T14:55:59.200Z,99391.72
2022-12-31T14:58:33.059Z,99400.72
2022-12-31T15:01:03.735Z,99388.09
2022-12-31T15:03:42.951Z,99384.59
2022-12-31T15:06:37.996Z,99384.09
2022-12-31T15:09:16.120Z,99383.41
2022-12-31T15:12:04.826Z,99391.13
2022-12-31T15:14:49.746Z,99393.09
2022-12-31T15:17:33.603Z,99392.25
2022-12-31T15:20:23.571Z,99395.75
2022-12-31T15:22:53.085Z,99382.69
2022-12-31T15:25:24.439Z,99379.53
2022-12-31T15:27:53.334Z,99375.50
2022-12-31T15:30:40.126Z,99369.34
2022-12-31T15:33:19.422Z,99349.22
2022-12-31T15:35:50.453Z,99352.28
2022-12-31T15:38:30.413Z,99368.16
2022-12-31T15:40:59.577Z,99363.09
2022-12-31T15:43:39.886Z,99364.78
2022-12-31T15:46:15.365Z,99350.59
2022-12-31T15:48:51.661Z,99355.22
2022-12-31T15:51:24.028Z,99361.25
2022-12-31T15:53:54.531Z,99351.44
2022-12-31T15:56:31.332Z,99358.00
2022-12-31T15:59:01.932Z,99347.31
2022-12-31T16:01:32.770Z,99338.72
2022-12-31T16:04:04.731Z,99357.28
2022-12-31T16:06:36.086Z,99346.63
2022-12-31T16:09:06.521Z,99348.69
2022-12-31T16:11:38.483Z,99359.13
2022-12-31T16:14:06.046Z,99358.38
2022-12-31T16:16:34.096Z,99356.69
2022-12-31T16:19:03.108Z,99358.25
2022-12-31T16:21:33.164Z,99364.69
2022-12-31T16:24:02.220Z,99369.06
2022-12-31T16:26:34.164Z,99365.66
2022-12-31T16:29:02.491Z,99370.19
2022-12-31T16:31:30.595Z,99366.06
2022-12-31T16:34:11.792Z,99357.78
2022-12-31T16:36:39.340Z,99361.06
2022-12-31T16:39:24.545Z,99362.88
2022-12-31T16:42:07.245Z,99367.25
2022-12-31T16:44:35.040Z,99367.50
2022-12-31T16:47:03.907Z,99370.75
2022-12-31T16:49:35.695Z,99375.84
2022-12-31T16:52:05.884Z,99375.25
2022-12-31T16:54:37.184Z,99375.56
2022-12-31T16:57:05.330Z,99374.59
2022-12-31T16:59:38.073Z,99379.81
2022-12-31T17:02:14.317Z,99384.44
2022-12-31T17:04:55.151Z,99380.91
2022-12-31T17:07:38.535Z,99376.66
2022-12-31T17:10:18.556Z,99374.84
2022-12-31T17:13:25.357Z,99375.44
2022-12-31T17:15:40.785Z,99367.31
2022-12-31T17:18:14.911Z,99362.50
2022-12-31T17:20:44.049Z,99375.84
2022-12-31T17:23:22.811Z,99371.94
2022-12-31T17:25:58.212Z,99373.88
2022-12-31T17:28:26.839Z,99378.63
2022-12-31T17:30:58.675Z,99386.03
2022-12-31T17:33:35.260Z,99386.63
2022-12-31T17:36:22.755Z,99379.88
2022-12-31T17:38:50.627Z,99379.47
2022-12-31T17:41:25.207Z,99377.06
2022-12-31T17:43:55.994Z,99371.88
2022-12-31T17:46:25.591Z,99366.25
2022-12-31T17:48:56.486Z,99358.16
2022-12-31T17:51:25.409Z,99347.97
2022-12-31T17:53:52.964Z,99361.06
2022-12-31T17:56:20.807Z,99353.31
2022-12-31T17:58:51.162Z,99351.63
2022-12-31T18:01:21.383Z,99359.88
2022-12-31T18:03:49.395Z,99360.44
2022-12-31T18:06:17.368Z,99360.72
2022-12-31T18:08:47.373Z,99351.88
2022-12-31T18:11:17.182Z,99357.06
2022-12-31T18:13:44.375Z,99350.16
2022-12-31T18:16:12.030Z,99356.47
2022-12-31T18:18:39.696Z,99354.69
2022-12-31T18:21:13.595Z,99351.28
2022-12-31T18:23:44.228Z,99359.16
2022-12-31T18:26:14.370Z,99354.94
2022-12-31T18:28:41.836Z,99370.56
2022-12-31T18:31:16.587Z,99360.00
2022-12-31T18:33:44.820Z,99366.31
2022-12-31T18:36:13.507Z,99369.22
2022-12-31T18:38:41.750Z,99369.22
2022-12-31T18:41:18.714Z,99369.59
2022-12-31T18:43:46.577Z,99370.56
2022-12-31T18:46:15.647Z,99371.50
2022-12-31T18:48:43.359Z,99368.00
2022-12-31T18:51:13.765Z,99376.97
2022-12-31T18:53:41.425Z,99364.75
2022-12-31T18:56:11.586Z,99362.06
2022-12-31T18:58:41.215Z,99351.53
2022-12-31T19:01:24.808Z,99353.22
2022-12-31T19:03:52.339Z,99362.19
2022-12-31T19:06:20.050Z,99347.44
2022-12-31T19:08:47.714Z,99350.94
2022-12-31T19:11:15.834Z,99341.13
2022-12-31T19:13:45.796Z,99347.56
2022-12-31T19:16:13.652Z,99344.50
2022-12-31T19:18:41.441Z,99353.97
2022-12-31T19:21:17.800Z,99365.50
2022-12-31T19:23:45.987Z,99369.75
2022-12-31T19:26:15.670Z,99366.38
2022-12-31T19:28:45.242Z,99369.03
2022-12-31T19:31:12.856Z,99364.66
2022-12-31T19:33:40.555Z,99359.84
2022-12-31T19:36:15.087Z,99352.78
2022-12-31T19:38:43.370Z,99353.41
2022-12-31T19:41:15.626Z,99364.19
2022-12-31T19:43:44.910Z,99359.56
2022-12-31T19:46:13.891Z,99358.75
2022-12-31T19:48:43.017Z,99369.75
2022-12-31T19:51:12.585Z,99351.31
2022-12-31T19:53:40.127Z,99352.31
2022-12-31T19:56:12.540Z,99353.41
2022-12-31T19:58:40.037Z,99353.78
2022-12-31T20:01:14.379Z,99344.56
2022-12-31T20:03:41.950Z,99342.41
2022-12-31T20:06:10.734Z,99337.78
2022-12-31T20:08:39.537Z,99343.50
2022-12-31T20:11:11.292Z,99340.59
2022-12-31T20:13:39.623Z,99338.91
2022-12-31T20:16:11.093Z,99331.88
2022-12-31T20:18:39.139Z,99331.28
2022-12-31T20:21:10.567Z,99325.69
2022-12-31T20:23:38.030Z,99319.66
2022-12-31T20:26:05.756Z,99317.69
2022-12-31T20:28:33.259Z,99314.44
2022-12-31T20:31:06.143Z,99316.38
2022-12-31T20:33:35.184Z,99320.63
2022-12-31T20:36:03.102Z,99314.56
2022-12-31T20:38:30.626Z,99308.13
2022-12-31T20:41:03.650Z,99303.44
2022-12-31T20:43:31.353Z,99308.38
2022-12-31T20:45:58.952Z,99316.03
2022-12-31T20:48:26.487Z,99326.44
2022-12-31T20:50:59.043Z,99319.31
2022-12-31T20:53:26.959Z,99306.22
2022-12-31T20:55:54.555Z,99306.81
2022-12-31T20:58:22.093Z,99295.56
2022-12-31T21:00:50.325Z,99296.66
2022-12-31T21:03:53.821Z,99301.59
2022-12-31T21:06:07.907Z,99296.28
2022-12-31T21:08:35.693Z,99291.69
2022-12-31T21:11:03.493Z,99278.75
2022-12-31T21:13:30.960Z,99293.88
2022-12-31T21:15:58.537Z,99296.69
2022-12-31T21:18:26.584Z,99302.94
2022-12-31T21:20:54.033Z,99303.94
2022-12-31T21:23:22.895Z,99300.44
2022-12-31T21:25:50.506Z,99299.56
2022-12-31T21:28:18.009Z,99289.78
2022-12-31T21:30:45.561Z,99296.09
2022-12-31T21:33:13.043Z,99290.75
2022-12-31T21:35:44.555Z,99291.84
2022-12-31T21:38:14.261Z,99293.53
2022-12-31T21:40:43.316Z,99289.28
2022-12-31T21:43:10.916Z,99302.72
2022-12-31T21:45:38.714Z,99301.03
2022-12-31T21:48:07.042Z,99297.16
2022-12-31T21:50:35.014Z,99299.94
2022-12-31T21:53:02.701Z,99290.38
2022-12-31T21:55:30.116Z,99293.03
2022-12-31T21:58:25.186Z,99292.81
2022-12-31T22:00:46.551Z,99303.47
2022-12-31T22:03:14.141Z,99298.00
2022-12-31T22:05:48.285Z,99296.47
2022-12-31T22:08:15.903Z,99298.16
2022-12-31T22:10:51.962Z,99306.84
2022-12-31T22:13:22.123Z,99297.03
2022-12-31T22:15:55.406Z,99295.34
2022-12-31T22:18:27.638Z,99296.31
2022-12-31T22:21:02.143Z,99290.97
2022-12-31T22:23:30.579Z,99297.16
2022-12-31T22:25:58.121Z,99286.50
2022-12-31T22:28:37.950Z,99279.25
2022-12-31T22:31:06.882Z,99277.06
2022-12-31T22:33:34.429Z,99283.13
2022-12-31T22:36:04.060Z,99268.97
2022-12-31T22:38:32.137Z,99266.19
2022-12-31T22:41:07.364Z,99261.22
2022-12-31T22:43:38.051Z,99269.06
2022-12-31T22:46:10.194Z,99261.81
2022-12-31T22:48:37.857Z,99258.78
2022-12-31T22:51:06.268Z,99247.31
2022-12-31T22:53:33.899Z,99257.69
2022-12-31T22:56:01.840Z,99251.78
2022-12-31T22:58:29.430Z,99250.94
2022-12-31T23:00:58.490Z,99238.34
2022-12-31T23:03:26.248Z,99243.19
2022-12-31T23:05:53.787Z,99241.97
2022-12-31T23:08:23.756Z,99242.97
2022-12-31T23:10:54.145Z,99244.88
2022-12-31T23:13:21.335Z,99248.03
2022-12-31T23:15:48.944Z,99233.66
2022-12-31T23:18:18.131Z,99227.47
2022-12-31T23:20:46.174Z,99223.94
2022-12-31T23:23:16.471Z,99223.56
2022-12-31T23:25:46.622Z,99216.81
2022-12-31T23:28:15.788Z,99223.13
2022-12-31T23:30:43.834Z,99222.41
2022-12-31T23:33:15.427Z,99216.09
2022-12-31T23:35:44.757Z,99222.13
2022-12-31T23:38:12.914Z,99229.66
2022-12-31T23:40:40.518Z,99226.75
2022-12-31T23:43:09.144Z,99229.41
2022-12-31T23:45:37.188Z,99225.91
2022-12-31T23:48:05.501Z,99231.38
2022-12-31T23:50:33.176Z,99226.03
2022-12-31T23:53:02.142Z,99231.38
2022-12-31T23:55:29.790Z,99229.66
2022-12-31T23:57:57.833Z,99225.56
